Serenade Of The Seas — C6FV8 — position and weather

sailwx.info

Track history (hours):
 
Tides and Currents Weather Stations Pressure Air Temp Water Temp Dewpoint Dewpoint Depression Visibility Wind Speed Wind Dir Waves Ship Positions

Serenade Of The Seas

Operator: Royal Caribbean Cruises Ltd

Last reported at 2019-May-20 02:00 UTC. Time now 2019-May-20 02:23 UTC.
Position N 54°30' E 011°28'.

Length 294 m; draft 8.5 m.

Type: Ship. MMSI: 311492000.

Date/timePositionNaut miles runAvg speedWind from/ knotsBaromVisibWave heightAir tempDewpointWater temp
2019-May-20 02:00N 54°30' E 011°28'816.1
2019-May-20 01:30N 54°33' E 011°15'919.1
2019-May-20 01:00N 54°38' E 011°02'917.6
2019-May-20 00:30N 54°45' E 010°51'918.6
2019-May-20 00:00N 54°54' E 010°53'142.3
2019-May-20 00:00N 54°54' E 010°54'918.1 070 / 101004.0 13.0
2019-May-19 23:30N 55°02' E 011°01'918.8
2019-May-19 23:00N 55°11' E 011°04'7014.0
2019-May-19 18:00N 56°12' E 012°06'1117.0 030 / 301006.0 14.7 13.0
2019-May-19 17:20N 56°10' E 012°26'619.2
2019-May-19 17:00N 56°06' E 012°35'917.3
2019-May-19 16:30N 55°59' E 012°42'917.3
2019-May-19 16:00N 55°50' E 012°45'714.7
2019-May-19 15:31N 55°43' E 012°39'1 2.4
2019-May-19 14:59N 55°43' E 012°37'0 0.0
2019-May-19 14:29N 55°43' E 012°37'0 0.0
2019-May-19 13:59N 55°43' E 012°37'0 0.0
2019-May-19 13:29N 55°43' E 012°37'0 0.0
2019-May-19 12:56N 55°43' E 012°37'0 0.0
2019-May-19 12:29N 55°43' E 012°37'0 0.0
2019-May-19 11:59N 55°43' E 012°37'0 0.0
2019-May-19 11:29N 55°43' E 012°37'0 0.0
2019-May-19 10:59N 55°43' E 012°37'0 0.0
2019-May-19 10:29N 55°43' E 012°37'0 0.0
2019-May-19 09:59N 55°43' E 012°37'0 0.0
2019-May-19 09:29N 55°43' E 012°37'0 0.0
2019-May-19 08:59N 55°43' E 012°37'0 0.0
2019-May-19 08:29N 55°43' E 012°37'0 0.0
2019-May-19 07:59N 55°43' E 012°37'0 0.0
2019-May-19 07:29N 55°43' E 012°37'0 0.0
2019-May-19 06:56N 55°43' E 012°37'0 0.0
2019-May-19 06:29N 55°43' E 012°37'0 0.0
2019-May-19 05:59N 55°43' E 012°37'0 0.0
2019-May-19 05:29N 55°43' E 012°37'0 0.0
2019-May-19 04:59N 55°43' E 012°37'1 1.7
2019-May-19 04:30N 55°43' E 012°38'713.3
2019-May-19 04:00N 55°50' E 012°42'816.1
2019-May-19 03:30N 55°58' E 012°40'816.1
2019-May-19 03:00N 56°05' E 012°35'816.6
2019-May-19 02:30N 56°10' E 012°23'4015.9
2019-May-19 00:00N 56°06' E 011°12'4215.7 080 / 181007.0 13.0
2019-May-18 21:19N 55°24' E 011°01'517.0
2019-May-18 21:00N 55°19' E 011°03'815.8
2019-May-18 20:30N 55°11' E 011°05'815.5
2019-May-18 20:00N 55°04' E 011°03'817.0
2019-May-18 19:30N 54°56' E 010°56'917.7
2019-May-18 19:00N 54°47' E 010°52'816.3
2019-May-18 18:30N 54°40' E 010°59'918.3
2019-May-18 18:00N 54°36' E 011°12'032.0
2019-May-18 18:00N 54°36' E 011°12'1019.8 090 / 251006.0 12.7 11.0
2019-May-18 17:30N 54°32' E 011°27'917.9
2019-May-18 17:00N 54°28' E 011°41'917.7
2019-May-18 16:30N 54°26' E 011°56'918.8
2019-May-18 16:00N 54°28' E 012°12'1019.6
2019-May-18 15:30N 54°37' E 012°16'1019.5
2019-May-18 15:00N 54°43' E 012°30'1019.5
2019-May-18 14:30N 54°48' E 012°44'1319.2
2019-May-18 13:50N 54°53' E 013°05'720.8
2019-May-18 13:30N 54°55' E 013°17'1121.1
2019-May-18 12:59N 54°59' E 013°35'1919.6
2019-May-18 12:00N 55°06' E 014°06'826.5 050 / 121009.0 9.9 9.8
2019-May-18 11:42N 55°12' E 014°14'421.2
2019-May-18 11:30N 55°15' E 014°19'1920.9
2019-May-18 10:36N 55°29' E 014°42'220.8
2019-May-18 10:30N 55°30' E 014°45'1020.9
2019-May-18 10:00N 55°35' E 015°01'1020.9
2019-May-18 09:30N 55°40' E 015°17'1020.8
2019-May-18 09:00N 55°44' E 015°34'1020.9
2019-May-18 08:30N 55°50' E 015°50'1020.6
2019-May-18 08:00N 55°55' E 016°06'1020.3
2019-May-18 07:30N 56°00' E 016°21'1020.6
2019-May-18 07:00N 56°06' E 016°36'1020.0
2019-May-18 06:30N 56°12' E 016°51'1019.1
2019-May-18 06:00N 56°17' E 017°05'11118.5
2019-May-18 00:00N 57°36' E 019°30'11019.7 100 / 201012.0
2019-May-17 18:23N 59°06' E 021°31'719.5
2019-May-17 18:00N 59°12' E 021°40'6382.8
2019-May-17 18:00N 59°06' E 021°36'1531.6 080 / 211016.0 11.3 8.2
2019-May-17 17:30N 59°18' E 021°55'1019.3
2019-May-17 17:00N 59°23' E 022°10'1019.2
2019-May-17 16:30N 59°29' E 022°26'918.9
2019-May-17 16:00N 59°32' E 022°44'918.9
2019-May-17 15:30N 59°34' E 023°02'918.9
2019-May-17 15:00N 59°37' E 023°20'1019.0
2019-May-17 14:30N 59°40' E 023°38'1019.0
2019-May-17 14:00N 59°42' E 023°56'1019.1
2019-May-17 13:30N 59°46' E 024°13'1019.1
2019-May-17 13:00N 59°49' E 024°31'918.9
2019-May-17 12:30N 59°53' E 024°48'816.2
2019-May-17 12:00N 60°00' E 024°57'713.2
2019-May-17 11:30N 60°07' E 024°54'2 4.7
2019-May-17 10:59N 60°09' E 024°55'0 0.0
2019-May-17 10:29N 60°09' E 024°55'0 0.0
2019-May-17 09:59N 60°09' E 024°55'0 0.0
2019-May-17 09:29N 60°09' E 024°55'0 0.0
2019-May-17 08:59N 60°09' E 024°55'0 0.0
2019-May-17 08:29N 60°09' E 024°55'0 0.0
2019-May-17 07:59N 60°09' E 024°55'0 0.0
2019-May-17 07:29N 60°09' E 024°55'0 0.0
2019-May-17 06:59N 60°09' E 024°55'0 0.0
2019-May-17 06:29N 60°09' E 024°55'0 0.0
2019-May-17 05:59N 60°09' E 024°55'0 0.0
2019-May-17 05:29N 60°09' E 024°55'0 0.0
2019-May-17 04:59N 60°09' E 024°55'0 0.0
2019-May-17 04:29N 60°09' E 024°55'0 0.0
2019-May-17 03:59N 60°09' E 024°55'0 0.0
2019-May-17 03:30N 60°09' E 024°55'3 5.6
2019-May-17 03:00N 60°06' E 024°54'713.2
2019-May-17 02:30N 60°00' E 024°58'816.7
2019-May-17 02:00N 59°57' E 025°14'1019.5
2019-May-17 01:30N 59°54' E 025°32'1019.3
2019-May-17 01:00N 59°55' E 025°51'1119.6
2019-May-17 00:27N 59°58' E 026°12'819.2
2019-May-17 00:00N 60°01' E 026°29'2177.0
2019-May-17 00:00N 60°00' E 026°24'1224.3 350 / 101021.0 11.0
2019-May-16 23:31N 59°60' E 026°47'918.7
2019-May-16 23:01N 60°00' E 027°06'1019.3
2019-May-16 22:30N 60°05' E 027°22'1019.4
2019-May-16 22:01N 60°10' E 027°39'918.3
2019-May-16 21:30N 60°11' E 027°57'918.6
2019-May-16 21:00N 60°08' E 028°15'918.8
2019-May-16 20:30N 60°03' E 028°31'919.0
2019-May-16 20:01N 60°03' E 028°50'918.6
2019-May-16 19:30N 60°02' E 029°09'916.6
2019-May-16 18:59N 60°02' E 029°26'1010.3
2019-May-16 18:01N 59°59' E 029°45'0 8.1
2019-May-16 18:00N 59°59' E 029°46'5 9.1
2019-May-16 17:29N 59°57' E 029°54'510.0
2019-May-16 17:00N 59°56' E 030°03'4 7.9
2019-May-16 16:30N 59°57' E 030°11'0 0.2
2019-May-16 16:00N 59°57' E 030°11'0 0.0
2019-May-16 15:30N 59°57' E 030°11'0 0.0
2019-May-16 15:00N 59°57' E 030°11'0 0.0
2019-May-16 14:30N 59°57' E 030°11'0 0.0
2019-May-16 14:00N 59°57' E 030°11'0 0.0
2019-May-16 13:30N 59°57' E 030°11'0 0.0
2019-May-16 13:00N 59°57' E 030°11'0 0.0
2019-May-16 12:30N 59°57' E 030°11'0 0.0
2019-May-16 12:00N 59°57' E 030°11'0 0.0
2019-May-16 11:27N 59°57' E 030°11'0 0.0
2019-May-16 11:00N 59°57' E 030°11'0 0.0
2019-May-16 10:30N 59°57' E 030°11'0 0.0
2019-May-16 10:00N 59°57' E 030°11'0 0.0
2019-May-16 09:30N 59°57' E 030°11'0 0.0
2019-May-16 09:00N 59°57' E 030°11'0 0.0
2019-May-16 08:30N 59°57' E 030°11'0 0.0
2019-May-16 07:57N 59°57' E 030°11'0 0.0
2019-May-16 07:30N 59°57' E 030°11'0 0.0
2019-May-16 07:00N 59°57' E 030°11'0 0.0
2019-May-16 06:30N 59°57' E 030°11'0 0.0
2019-May-16 06:00N 59°57' E 030°11'0 0.0
2019-May-16 05:30N 59°57' E 030°11'0 0.0
2019-May-16 05:00N 59°57' E 030°11'0 0.0
2019-May-16 04:30N 59°57' E 030°11'0 0.0
2019-May-16 04:00N 59°57' E 030°11'0 0.8
2019-May-16 03:30N 59°57' E 030°10'4 8.3
2019-May-16 03:00N 59°56' E 030°02'5 9.3
2019-May-16 02:29N 59°57' E 029°53'4 9.3
2019-May-16 02:00N 59°59' E 029°45'810.9
2019-May-16 01:14N 60°01' E 029°29'3 9.4
2019-May-16 00:58N 60°02' E 029°24'716.1
2019-May-16 00:31N 60°02' E 029°10'816.0
2019-May-16 00:00N 60°02' E 028°53'12763.2
2019-May-16 00:00N 60°00' E 028°30'510.5 230 / 91023.0 8.0
2019-May-15 23:31N 60°02' E 028°39'815.4
2019-May-15 23:00N 60°04' E 028°24'815.4
2019-May-15 22:30N 60°08' E 028°11'815.7
2019-May-15 22:01N 60°10' E 027°56'815.1
2019-May-15 21:30N 60°09' E 027°41'816.3
2019-May-15 21:00N 60°05' E 027°26'816.2
2019-May-15 20:30N 60°01' E 027°13'815.4
2019-May-15 20:00N 59°58' E 026°58'816.3
2019-May-15 19:31N 59°60' E 026°43'816.4
2019-May-15 19:01N 59°58' E 026°27'1216.5
2019-May-15 18:17N 59°55' E 026°03'616.3
2019-May-15 17:54N 59°53' E 025°51'1216.6
2019-May-15 17:11N 59°51' E 025°29'316.3
2019-May-15 17:00N 59°50' E 025°23'816.2
2019-May-15 16:31N 59°47' E 025°07'816.4
2019-May-15 16:01N 59°44' E 024°53'816.3
2019-May-15 15:30N 59°38' E 024°42'713.3
2019-May-15 15:01N 59°32' E 024°44'5 9.1
2019-May-15 14:30N 59°27' E 024°46'0 0.0
2019-May-15 13:59N 59°27' E 024°46'0 0.0
2019-May-15 13:30N 59°27' E 024°46'0 0.0
2019-May-15 12:59N 59°27' E 024°46'0 0.0
2019-May-15 12:29N 59°27' E 024°46'0 0.0
2019-May-15 11:59N 59°27' E 024°46'0 0.0
2019-May-15 11:29N 59°27' E 024°46'0 0.0
2019-May-15 10:59N 59°27' E 024°46'0 0.0
2019-May-15 10:29N 59°27' E 024°46'0 0.0
2019-May-15 09:59N 59°27' E 024°46'0 0.0
2019-May-15 09:29N 59°27' E 024°46'0 0.0
2019-May-15 08:59N 59°27' E 024°46'0 0.0
2019-May-15 08:29N 59°27' E 024°46'0 0.0
2019-May-15 07:59N 59°27' E 024°46'0 0.0
2019-May-15 07:29N 59°27' E 024°46'0 0.0
2019-May-15 06:59N 59°27' E 024°46'0 0.0
2019-May-15 06:30N 59°27' E 024°46'2 3.3
2019-May-15 06:01N 59°29' E 024°46'510.7
2019-May-15 05:30N 59°30' E 024°35'612.2
2019-May-15 05:00N 59°30' E 024°23'918.9
2019-May-15 04:30N 59°30' E 024°05'919.1
2019-May-15 04:01N 59°30' E 023°46'1019.0
2019-May-15 03:30N 59°30' E 023°27'919.0
2019-May-15 03:00N 59°30' E 023°08'1019.1
2019-May-15 02:31N 59°26' E 022°52'918.2
2019-May-15 02:00N 59°22' E 022°35'918.2
2019-May-15 01:29N 59°25' E 022°17'919.0
2019-May-15 01:00N 59°24' E 021°60'918.9
2019-May-15 00:30N 59°24' E 021°41'918.9
2019-May-15 00:00N 59°24' E 021°22'2157.7
2019-May-15 00:00N 59°24' E 021°18'714.7 360 / 121023.0 7.0
2019-May-14 23:31N 59°24' E 021°04'3017.6
2019-May-14 21:47N 59°29' E 020°05'1518.1
2019-May-14 20:56N 59°42' E 019°49'717.3
2019-May-14 20:30N 59°47' E 019°37'816.6
2019-May-14 20:00N 59°46' E 019°21'815.8
2019-May-14 19:30N 59°43' E 019°06'712.9
2019-May-14 18:57N 59°39' E 018°54'511.6
2019-May-14 18:29N 59°36' E 018°46'511.2
2019-May-14 18:00N 59°33' E 018°36'5 9.7
2019-May-14 17:29N 59°30' E 018°29'510.9
2019-May-14 17:00N 59°26' E 018°23'4 8.7
2019-May-14 16:30N 59°21' E 018°26'4 8.8
2019-May-14 16:00N 59°22' E 018°17'510.5
2019-May-14 15:30N 59°19' E 018°08'1 2.5
2019-May-14 15:00N 59°19' E 018°06'0 0.0
2019-May-14 14:27N 59°19' E 018°06'0 0.0
2019-May-14 14:00N 59°19' E 018°06'0 0.0
2019-May-14 13:27N 59°19' E 018°06'0 0.0
2019-May-14 12:54N 59°19' E 018°06'0 0.0
2019-May-14 12:30N 59°19' E 018°06'0 0.0
2019-May-14 11:57N 59°19' E 018°06'0 0.0
2019-May-14 11:30N 59°19' E 018°06'0 0.0
2019-May-14 11:00N 59°19' E 018°06'0 0.0
2019-May-14 10:30N 59°19' E 018°06'0 0.0
2019-May-14 09:54N 59°19' E 018°06'0 0.0
2019-May-14 09:30N 59°19' E 018°06'0 0.0
2019-May-14 08:52N 59°19' E 018°06'0 0.0
2019-May-14 08:28N 59°19' E 018°06'0 0.0
2019-May-14 07:57N 59°19' E 018°06'0 0.0
2019-May-14 07:30N 59°19' E 018°06'0 0.0
2019-May-14 07:01N 59°19' E 018°06'3 5.6
2019-May-14 06:30N 59°20' E 018°11'511.0
2019-May-14 06:00N 59°23' E 018°20'5299.4
2019-May-14 06:00N 59°18' E 018°18'714.2 360 / 81028.0 7.0
2019-May-14 05:30N 59°23' E 018°27'4 7.3
2019-May-14 05:00N 59°27' E 018°25'810.1
2019-May-14 04:10N 59°33' E 018°36'1 9.5
2019-May-14 04:00N 59°34' E 018°39'812.1
2019-May-14 03:20N 59°38' E 018°52'3 8.4
2019-May-14 02:58N 59°40' E 018°57'715.2
2019-May-14 02:29N 59°44' E 019°10'715.4
2019-May-14 02:00N 59°47' E 019°24'918.0
2019-May-14 01:30N 59°48' E 019°41'2718.1
2019-May-14 00:00N 59°24' E 020°06'1918.4 350 / 171025.0 6.0
2019-May-13 22:57N 59°09' E 019°44'9719.6
2019-May-13 18:00N 57°48' E 018°00'9821.0 080 / 151027.0 6.3 6.5
2019-May-13 13:20N 56°15' E 017°05'619.2
2019-May-13 13:00N 56°09' E 017°00'1019.7
2019-May-13 12:30N 56°03' E 016°47'1019.9
2019-May-13 12:00N 55°57' E 016°32'1019.9
2019-May-13 11:30N 55°52' E 016°18'1020.3
2019-May-13 11:00N 55°46' E 016°02'1020.3
2019-May-13 10:30N 55°41' E 015°46'1020.2
2019-May-13 10:00N 55°37' E 015°30'1020.4
2019-May-13 09:30N 55°32' E 015°14'1020.3
2019-May-13 09:00N 55°28' E 014°58'1020.2
2019-May-13 08:30N 55°23' E 014°42'1020.0
2019-May-13 08:00N 55°16' E 014°30'1020.4
2019-May-13 07:30N 55°08' E 014°19'1019.6
2019-May-13 07:00N 55°01' E 014°07'1720.6
2019-May-13 06:10N 54°56' E 013°38'529.0
2019-May-13 06:00N 54°54' E 013°30'1718.3 330 / 151026.0 9.0
2019-May-13 05:03N 54°49' E 013°02'120.1
2019-May-13 05:00N 54°48' E 013°00'1019.8
2019-May-13 04:30N 54°45' E 012°44'1219.2
2019-May-13 03:52N 54°39' E 012°25'719.3
2019-May-13 03:29N 54°34' E 012°17'919.6
2019-May-13 03:01N 54°25' E 012°10'1019.1
2019-May-13 02:28N 54°25' E 011°52'919.1
2019-May-13 02:00N 54°28' E 011°38'1019.6
2019-May-13 01:30N 54°31' E 011°22'1019.8
2019-May-13 01:00N 54°36' E 011°07'1019.3
2019-May-13 00:31N 54°41' E 010°52'1019.5
2019-May-13 00:00N 54°50' E 010°52'3203.8
2019-May-13 00:00N 54°48' E 010°48'1326.4 310 / 271027.0 8.0
2019-May-12 23:30N 54°59' E 010°60'1019.9
2019-May-12 23:00N 55°09' E 011°02'915.5
2019-May-12 22:25N 55°18' E 011°03'6815.4
2019-May-12 18:00N 56°18' E 012°00'1719.5 330 / 101023.0 9.0 10.8
2019-May-12 17:06N 56°09' E 012°27'218.7
2019-May-12 17:00N 56°08' E 012°30'817.0
2019-May-12 16:31N 56°02' E 012°40'815.9
2019-May-12 16:01N 55°55' E 012°45'815.8
2019-May-12 15:31N 55°47' E 012°42'5 9.9
2019-May-12 15:01N 55°43' E 012°37'0 0.2
2019-May-12 14:30N 55°43' E 012°37'0 0.0
2019-May-12 14:00N 55°43' E 012°37'0 0.0
2019-May-12 13:30N 55°43' E 012°37'0 0.0
2019-May-12 13:00N 55°43' E 012°37'0 0.0
2019-May-12 12:30N 55°43' E 012°37'0 0.0
2019-May-12 12:00N 55°43' E 012°37'0 0.0
2019-May-12 11:30N 55°43' E 012°37'0 0.0
2019-May-12 11:00N 55°43' E 012°37'0 0.0
2019-May-12 10:30N 55°43' E 012°37'0 0.0
2019-May-12 10:00N 55°43' E 012°37'0 0.0
2019-May-12 09:30N 55°43' E 012°37'0 0.0
2019-May-12 09:00N 55°43' E 012°37'0 0.0
2019-May-12 08:30N 55°43' E 012°37'0 0.0
2019-May-12 07:57N 55°43' E 012°37'0 0.0
2019-May-12 07:30N 55°43' E 012°37'0 0.0
2019-May-12 07:00N 55°43' E 012°37'0 0.0
2019-May-12 06:30N 55°43' E 012°37'0 0.0
2019-May-12 06:01N 55°43' E 012°37'0 0.0
2019-May-12 05:31N 55°43' E 012°37'0 0.0
2019-May-12 05:01N 55°43' E 012°37'0 0.0
2019-May-12 04:31N 55°43' E 012°37'0 0.0
2019-May-12 04:01N 55°43' E 012°37'2 3.5
2019-May-12 03:30N 55°44' E 012°40'612.3
2019-May-12 03:00N 55°50' E 012°41'714.6
2019-May-12 02:30N 55°57' E 012°40'714.9
2019-May-12 02:00N 56°04' E 012°36'816.6
2019-May-12 01:30N 56°09' E 012°24'2214.8
2019-May-12 00:00N 56°24' E 011°54'3920.4 300 / 271014.0 8.0
2019-May-11 22:05N 57°02' E 011°40'218.4
2019-May-11 21:58N 57°04' E 011°39'919.3
2019-May-11 21:30N 57°12' E 011°32'1020.4
2019-May-11 21:00N 57°22' E 011°26'918.5
2019-May-11 20:30N 57°30' E 011°19'919.0
2019-May-11 20:00N 57°37' E 011°06'1019.0
2019-May-11 19:30N 57°43' E 010°53'1019.0
2019-May-11 19:00N 57°50' E 010°40'1019.5
2019-May-11 18:30N 57°51' E 010°21'918.9
2019-May-11 18:00N 57°50' E 010°04'918.9
2019-May-11 17:30N 57°50' E 009°46'918.5
2019-May-11 17:00N 57°49' E 009°29'918.5
2019-May-11 16:30N 57°43' E 009°15'919.2
2019-May-11 16:00N 57°38' E 008°60'918.9
2019-May-11 15:30N 57°33' E 008°45'918.7
2019-May-11 15:00N 57°28' E 008°30'918.5
2019-May-11 14:30N 57°22' E 008°17'918.4
2019-May-11 14:00N 57°14' E 008°06'918.2
2019-May-11 13:30N 57°06' E 007°59'1018.3
2019-May-11 12:59N 56°58' E 007°51'3418.4
2019-May-11 11:06N 56°27' E 007°21'9919.3
2019-May-11 06:00N 55°00' E 006°00'10617.7 030 / 81010.010.8 8.0-0.7 9.0
2019-May-11 00:00N 53°24' E 004°42'3 9.3 090 / 121009.0 8.0
2019-May-10 23:40N 53°21' E 004°39'318.2
2019-May-10 23:30N 53°19' E 004°37'917.9
2019-May-10 23:00N 53°10' E 004°33'918.3
2019-May-10 22:30N 53°03' E 004°25'917.5
2019-May-10 21:59N 52°55' E 004°17'1218.3
2019-May-10 21:18N 52°44' E 004°08'518.5
2019-May-10 21:01N 52°38' E 004°06'816.4
2019-May-10 20:30N 52°31' E 004°13'816.9
2019-May-10 20:00N 52°29' E 004°26'510.6
2019-May-10 19:31N 52°28' E 004°35'1 2.1
2019-May-10 19:01N 52°28' E 004°36'1 1.0
2019-May-10 18:31N 52°28' E 004°37'0 0.0
2019-May-10 18:01N 52°28' E 004°37'4244.3
2019-May-10 18:00N 52°24' E 004°36'4 8.4 330 / 51008.0 10.9 15.2
2019-May-10 17:31N 52°28' E 004°37'1 2.1
2019-May-10 17:00N 52°28' E 004°39'4 7.8
2019-May-10 16:31N 52°26' E 004°45'4 8.2
2019-May-10 16:01N 52°25' E 004°51'3 5.9
2019-May-10 15:30N 52°23' E 004°54'0 0.8
2019-May-10 15:00N 52°23' E 004°55'0 0.0
2019-May-10 14:29N 52°23' E 004°55'0 0.0
2019-May-10 13:59N 52°23' E 004°55'0 0.0
2019-May-10 13:29N 52°23' E 004°55'0 0.0
2019-May-10 12:59N 52°23' E 004°55'0 0.0
2019-May-10 12:29N 52°23' E 004°55'0 0.0
2019-May-10 11:59N 52°23' E 004°55'0 0.0
2019-May-10 11:29N 52°23' E 004°55'0 0.0
2019-May-10 10:59N 52°23' E 004°55'0 0.0
2019-May-10 10:29N 52°23' E 004°55'0 0.0
2019-May-10 09:59N 52°23' E 004°55'0 0.0
2019-May-10 09:29N 52°23' E 004°55'0 0.0
2019-May-10 08:59N 52°23' E 004°55'0 0.0
2019-May-10 08:29N 52°23' E 004°55'0 0.0
2019-May-10 07:56N 52°23' E 004°55'0 0.0
2019-May-10 07:29N 52°23' E 004°55'0 0.0
2019-May-10 06:59N 52°23' E 004°55'0 0.0
2019-May-10 06:29N 52°23' E 004°55'0 0.0
2019-May-10 05:59N 52°23' E 004°55'0 0.0
2019-May-10 05:29N 52°23' E 004°55'0 0.0
2019-May-10 05:00N 52°23' E 004°55'2 3.1
2019-May-10 04:31N 52°24' E 004°53'3 7.0
2019-May-10 04:01N 52°25' E 004°48'4 7.4
2019-May-10 03:30N 52°26' E 004°42'4 7.2
2019-May-10 03:01N 52°28' E 004°37'2 2.1
2019-May-10 02:01N 52°28' E 004°34'  
Track history (hours):
 
Tides and Currents Weather Stations Pressure Air Temp Water Temp Dewpoint Dewpoint Depression Visibility Wind Speed Wind Dir Waves Ship Positions

Serenade Of The Seas

Operator: Royal Caribbean Cruises Ltd

Last reported at 2019-May-20 02:00 UTC. Time now 2019-May-20 02:23 UTC.
Position N 54°30' E 011°28'.

Length 294 m; draft 8.5 m.

Type: Ship. MMSI: 311492000.

Date/timePositionNaut miles runAvg speedWind from/ knotsBaromVisibWave heightAir tempDewpointWater temp
2019-May-20 02:00N 54°30' E 011°28'816.1
2019-May-20 01:30N 54°33' E 011°15'919.1
2019-May-20 01:00N 54°38' E 011°02'917.6
2019-May-20 00:30N 54°45' E 010°51'918.6
2019-May-20 00:00N 54°54' E 010°53'142.3
2019-May-20 00:00N 54°54' E 010°54'918.1 070 / 101004.0 13.0
2019-May-19 23:30N 55°02' E 011°01'918.8
2019-May-19 23:00N 55°11' E 011°04'7014.0
2019-May-19 18:00N 56°12' E 012°06'1117.0 030 / 301006.0 14.7 13.0
2019-May-19 17:20N 56°10' E 012°26'619.2
2019-May-19 17:00N 56°06' E 012°35'917.3
2019-May-19 16:30N 55°59' E 012°42'917.3
2019-May-19 16:00N 55°50' E 012°45'714.7
2019-May-19 15:31N 55°43' E 012°39'1 2.4
2019-May-19 14:59N 55°43' E 012°37'0 0.0
2019-May-19 14:29N 55°43' E 012°37'0 0.0
2019-May-19 13:59N 55°43' E 012°37'0 0.0
2019-May-19 13:29N 55°43' E 012°37'0 0.0
2019-May-19 12:56N 55°43' E 012°37'0 0.0
2019-May-19 12:29N 55°43' E 012°37'0 0.0
2019-May-19 11:59N 55°43' E 012°37'0 0.0
2019-May-19 11:29N 55°43' E 012°37'0 0.0
2019-May-19 10:59N 55°43' E 012°37'0 0.0
2019-May-19 10:29N 55°43' E 012°37'0 0.0
2019-May-19 09:59N 55°43' E 012°37'0 0.0
2019-May-19 09:29N 55°43' E 012°37'0 0.0
2019-May-19 08:59N 55°43' E 012°37'0 0.0
2019-May-19 08:29N 55°43' E 012°37'0 0.0
2019-May-19 07:59N 55°43' E 012°37'0 0.0
2019-May-19 07:29N 55°43' E 012°37'0 0.0
2019-May-19 06:56N 55°43' E 012°37'0 0.0
2019-May-19 06:29N 55°43' E 012°37'0 0.0
2019-May-19 05:59N 55°43' E 012°37'0 0.0
2019-May-19 05:29N 55°43' E 012°37'0 0.0
2019-May-19 04:59N 55°43' E 012°37'1 1.7
2019-May-19 04:30N 55°43' E 012°38'713.3
2019-May-19 04:00N 55°50' E 012°42'816.1
2019-May-19 03:30N 55°58' E 012°40'816.1
2019-May-19 03:00N 56°05' E 012°35'816.6
2019-May-19 02:30N 56°10' E 012°23'4015.9
2019-May-19 00:00N 56°06' E 011°12'4215.7 080 / 181007.0 13.0
2019-May-18 21:19N 55°24' E 011°01'517.0
2019-May-18 21:00N 55°19' E 011°03'815.8
2019-May-18 20:30N 55°11' E 011°05'815.5
2019-May-18 20:00N 55°04' E 011°03'817.0
2019-May-18 19:30N 54°56' E 010°56'917.7
2019-May-18 19:00N 54°47' E 010°52'816.3
2019-May-18 18:30N 54°40' E 010°59'918.3
2019-May-18 18:00N 54°36' E 011°12'032.0
2019-May-18 18:00N 54°36' E 011°12'1019.8 090 / 251006.0 12.7 11.0
2019-May-18 17:30N 54°32' E 011°27'917.9
2019-May-18 17:00N 54°28' E 011°41'917.7
2019-May-18 16:30N 54°26' E 011°56'918.8
2019-May-18 16:00N 54°28' E 012°12'1019.6
2019-May-18 15:30N 54°37' E 012°16'1019.5
2019-May-18 15:00N 54°43' E 012°30'1019.5
2019-May-18 14:30N 54°48' E 012°44'1319.2
2019-May-18 13:50N 54°53' E 013°05'720.8
2019-May-18 13:30N 54°55' E 013°17'1121.1
2019-May-18 12:59N 54°59' E 013°35'1919.6
2019-May-18 12:00N 55°06' E 014°06'826.5 050 / 121009.0 9.9 9.8
2019-May-18 11:42N 55°12' E 014°14'421.2
2019-May-18 11:30N 55°15' E 014°19'1920.9
2019-May-18 10:36N 55°29' E 014°42'220.8
2019-May-18 10:30N 55°30' E 014°45'1020.9
2019-May-18 10:00N 55°35' E 015°01'1020.9
2019-May-18 09:30N 55°40' E 015°17'1020.8
2019-May-18 09:00N 55°44' E 015°34'1020.9
2019-May-18 08:30N 55°50' E 015°50'1020.6
2019-May-18 08:00N 55°55' E 016°06'1020.3
2019-May-18 07:30N 56°00' E 016°21'1020.6
2019-May-18 07:00N 56°06' E 016°36'1020.0
2019-May-18 06:30N 56°12' E 016°51'1019.1
2019-May-18 06:00N 56°17' E 017°05'11118.5
2019-May-18 00:00N 57°36' E 019°30'11019.7 100 / 201012.0
2019-May-17 18:23N 59°06' E 021°31'719.5
2019-May-17 18:00N 59°12' E 021°40'6382.8
2019-May-17 18:00N 59°06' E 021°36'1531.6 080 / 211016.0 11.3 8.2
2019-May-17 17:30N 59°18' E 021°55'1019.3
2019-May-17 17:00N 59°23' E 022°10'1019.2
2019-May-17 16:30N 59°29' E 022°26'918.9
2019-May-17 16:00N 59°32' E 022°44'918.9
2019-May-17 15:30N 59°34' E 023°02'918.9
2019-May-17 15:00N 59°37' E 023°20'1019.0
2019-May-17 14:30N 59°40' E 023°38'1019.0
2019-May-17 14:00N 59°42' E 023°56'1019.1
2019-May-17 13:30N 59°46' E 024°13'1019.1
2019-May-17 13:00N 59°49' E 024°31'918.9
2019-May-17 12:30N 59°53' E 024°48'816.2
2019-May-17 12:00N 60°00' E 024°57'713.2
2019-May-17 11:30N 60°07' E 024°54'2 4.7
2019-May-17 10:59N 60°09' E 024°55'0 0.0
2019-May-17 10:29N 60°09' E 024°55'0 0.0
2019-May-17 09:59N 60°09' E 024°55'0 0.0
2019-May-17 09:29N 60°09' E 024°55'0 0.0
2019-May-17 08:59N 60°09' E 024°55'0 0.0
2019-May-17 08:29N 60°09' E 024°55'0 0.0
2019-May-17 07:59N 60°09' E 024°55'0 0.0
2019-May-17 07:29N 60°09' E 024°55'0 0.0
2019-May-17 06:59N 60°09' E 024°55'0 0.0
2019-May-17 06:29N 60°09' E 024°55'0 0.0
2019-May-17 05:59N 60°09' E 024°55'0 0.0
2019-May-17 05:29N 60°09' E 024°55'0 0.0
2019-May-17 04:59N 60°09' E 024°55'0 0.0
2019-May-17 04:29N 60°09' E 024°55'0 0.0
2019-May-17 03:59N 60°09' E 024°55'0 0.0
2019-May-17 03:30N 60°09' E 024°55'3 5.6
2019-May-17 03:00N 60°06' E 024°54'713.2
2019-May-17 02:30N 60°00' E 024°58'816.7
2019-May-17 02:00N 59°57' E 025°14'1019.5
2019-May-17 01:30N 59°54' E 025°32'1019.3
2019-May-17 01:00N 59°55' E 025°51'1119.6
2019-May-17 00:27N 59°58' E 026°12'819.2
2019-May-17 00:00N 60°01' E 026°29'2177.0
2019-May-17 00:00N 60°00' E 026°24'1224.3 350 / 101021.0 11.0
2019-May-16 23:31N 59°60' E 026°47'918.7
2019-May-16 23:01N 60°00' E 027°06'1019.3
2019-May-16 22:30N 60°05' E 027°22'1019.4
2019-May-16 22:01N 60°10' E 027°39'918.3
2019-May-16 21:30N 60°11' E 027°57'918.6
2019-May-16 21:00N 60°08' E 028°15'918.8
2019-May-16 20:30N 60°03' E 028°31'919.0
2019-May-16 20:01N 60°03' E 028°50'918.6
2019-May-16 19:30N 60°02' E 029°09'916.6
2019-May-16 18:59N 60°02' E 029°26'1010.3
2019-May-16 18:01N 59°59' E 029°45'0 8.1
2019-May-16 18:00N 59°59' E 029°46'5 9.1
2019-May-16 17:29N 59°57' E 029°54'510.0
2019-May-16 17:00N 59°56' E 030°03'4 7.9
2019-May-16 16:30N 59°57' E 030°11'0 0.2
2019-May-16 16:00N 59°57' E 030°11'0 0.0
2019-May-16 15:30N 59°57' E 030°11'0 0.0
2019-May-16 15:00N 59°57' E 030°11'0 0.0
2019-May-16 14:30N 59°57' E 030°11'0 0.0
2019-May-16 14:00N 59°57' E 030°11'0 0.0
2019-May-16 13:30N 59°57' E 030°11'0 0.0
2019-May-16 13:00N 59°57' E 030°11'0 0.0
2019-May-16 12:30N 59°57' E 030°11'0 0.0
2019-May-16 12:00N 59°57' E 030°11'0 0.0
2019-May-16 11:27N 59°57' E 030°11'0 0.0
2019-May-16 11:00N 59°57' E 030°11'0 0.0
2019-May-16 10:30N 59°57' E 030°11'0 0.0
2019-May-16 10:00N 59°57' E 030°11'0 0.0
2019-May-16 09:30N 59°57' E 030°11'0 0.0
2019-May-16 09:00N 59°57' E 030°11'0 0.0
2019-May-16 08:30N 59°57' E 030°11'0 0.0
2019-May-16 07:57N 59°57' E 030°11'0 0.0
2019-May-16 07:30N 59°57' E 030°11'0 0.0
2019-May-16 07:00N 59°57' E 030°11'0 0.0
2019-May-16 06:30N 59°57' E 030°11'0 0.0
2019-May-16 06:00N 59°57' E 030°11'0 0.0
2019-May-16 05:30N 59°57' E 030°11'0 0.0
2019-May-16 05:00N 59°57' E 030°11'0 0.0
2019-May-16 04:30N 59°57' E 030°11'0 0.0
2019-May-16 04:00N 59°57' E 030°11'0 0.8
2019-May-16 03:30N 59°57' E 030°10'4 8.3
2019-May-16 03:00N 59°56' E 030°02'5 9.3
2019-May-16 02:29N 59°57' E 029°53'4 9.3
2019-May-16 02:00N 59°59' E 029°45'810.9
2019-May-16 01:14N 60°01' E 029°29'3 9.4
2019-May-16 00:58N 60°02' E 029°24'716.1
2019-May-16 00:31N 60°02' E 029°10'816.0
2019-May-16 00:00N 60°02' E 028°53'12763.2
2019-May-16 00:00N 60°00' E 028°30'510.5 230 / 91023.0 8.0
2019-May-15 23:31N 60°02' E 028°39'815.4
2019-May-15 23:00N 60°04' E 028°24'815.4
2019-May-15 22:30N 60°08' E 028°11'815.7
2019-May-15 22:01N 60°10' E 027°56'815.1
2019-May-15 21:30N 60°09' E 027°41'816.3
2019-May-15 21:00N 60°05' E 027°26'816.2
2019-May-15 20:30N 60°01' E 027°13'815.4
2019-May-15 20:00N 59°58' E 026°58'816.3
2019-May-15 19:31N 59°60' E 026°43'816.4
2019-May-15 19:01N 59°58' E 026°27'1216.5
2019-May-15 18:17N 59°55' E 026°03'616.3
2019-May-15 17:54N 59°53' E 025°51'1216.6
2019-May-15 17:11N 59°51' E 025°29'316.3
2019-May-15 17:00N 59°50' E 025°23'816.2
2019-May-15 16:31N 59°47' E 025°07'816.4
2019-May-15 16:01N 59°44' E 024°53'816.3
2019-May-15 15:30N 59°38' E 024°42'713.3
2019-May-15 15:01N 59°32' E 024°44'5 9.1
2019-May-15 14:30N 59°27' E 024°46'0 0.0
2019-May-15 13:59N 59°27' E 024°46'0 0.0
2019-May-15 13:30N 59°27' E 024°46'0 0.0
2019-May-15 12:59N 59°27' E 024°46'0 0.0
2019-May-15 12:29N 59°27' E 024°46'0 0.0
2019-May-15 11:59N 59°27' E 024°46'0 0.0
2019-May-15 11:29N 59°27' E 024°46'0 0.0
2019-May-15 10:59N 59°27' E 024°46'0 0.0
2019-May-15 10:29N 59°27' E 024°46'0 0.0
2019-May-15 09:59N 59°27' E 024°46'0 0.0
2019-May-15 09:29N 59°27' E 024°46'0 0.0
2019-May-15 08:59N 59°27' E 024°46'0 0.0
2019-May-15 08:29N 59°27' E 024°46'0 0.0
2019-May-15 07:59N 59°27' E 024°46'0 0.0
2019-May-15 07:29N 59°27' E 024°46'0 0.0
2019-May-15 06:59N 59°27' E 024°46'0 0.0
2019-May-15 06:30N 59°27' E 024°46'2 3.3
2019-May-15 06:01N 59°29' E 024°46'510.7
2019-May-15 05:30N 59°30' E 024°35'612.2
2019-May-15 05:00N 59°30' E 024°23'918.9
2019-May-15 04:30N 59°30' E 024°05'919.1
2019-May-15 04:01N 59°30' E 023°46'1019.0
2019-May-15 03:30N 59°30' E 023°27'919.0
2019-May-15 03:00N 59°30' E 023°08'1019.1
2019-May-15 02:31N 59°26' E 022°52'918.2
2019-May-15 02:00N 59°22' E 022°35'918.2
2019-May-15 01:29N 59°25' E 022°17'919.0
2019-May-15 01:00N 59°24' E 021°60'918.9
2019-May-15 00:30N 59°24' E 021°41'918.9
2019-May-15 00:00N 59°24' E 021°22'2157.7
2019-May-15 00:00N 59°24' E 021°18'714.7 360 / 121023.0 7.0
2019-May-14 23:31N 59°24' E 021°04'3017.6
2019-May-14 21:47N 59°29' E 020°05'1518.1
2019-May-14 20:56N 59°42' E 019°49'717.3
2019-May-14 20:30N 59°47' E 019°37'816.6
2019-May-14 20:00N 59°46' E 019°21'815.8
2019-May-14 19:30N 59°43' E 019°06'712.9
2019-May-14 18:57N 59°39' E 018°54'511.6
2019-May-14 18:29N 59°36' E 018°46'511.2
2019-May-14 18:00N 59°33' E 018°36'5 9.7
2019-May-14 17:29N 59°30' E 018°29'510.9
2019-May-14 17:00N 59°26' E 018°23'4 8.7
2019-May-14 16:30N 59°21' E 018°26'4 8.8
2019-May-14 16:00N 59°22' E 018°17'510.5
2019-May-14 15:30N 59°19' E 018°08'1 2.5
2019-May-14 15:00N 59°19' E 018°06'0 0.0
2019-May-14 14:27N 59°19' E 018°06'0 0.0
2019-May-14 14:00N 59°19' E 018°06'0 0.0
2019-May-14 13:27N 59°19' E 018°06'0 0.0
2019-May-14 12:54N 59°19' E 018°06'0 0.0
2019-May-14 12:30N 59°19' E 018°06'0 0.0
2019-May-14 11:57N 59°19' E 018°06'0 0.0
2019-May-14 11:30N 59°19' E 018°06'0 0.0
2019-May-14 11:00N 59°19' E 018°06'0 0.0
2019-May-14 10:30N 59°19' E 018°06'0 0.0
2019-May-14 09:54N 59°19' E 018°06'0 0.0
2019-May-14 09:30N 59°19' E 018°06'0 0.0
2019-May-14 08:52N 59°19' E 018°06'0 0.0
2019-May-14 08:28N 59°19' E 018°06'0 0.0
2019-May-14 07:57N 59°19' E 018°06'0 0.0
2019-May-14 07:30N 59°19' E 018°06'0 0.0
2019-May-14 07:01N 59°19' E 018°06'3 5.6
2019-May-14 06:30N 59°20' E 018°11'511.0
2019-May-14 06:00N 59°23' E 018°20'5299.4
2019-May-14 06:00N 59°18' E 018°18'714.2 360 / 81028.0 7.0
2019-May-14 05:30N 59°23' E 018°27'4 7.3
2019-May-14 05:00N 59°27' E 018°25'810.1
2019-May-14 04:10N 59°33' E 018°36'1 9.5
2019-May-14 04:00N 59°34' E 018°39'812.1
2019-May-14 03:20N 59°38' E 018°52'3 8.4
2019-May-14 02:58N 59°40' E 018°57'715.2
2019-May-14 02:29N 59°44' E 019°10'715.4
2019-May-14 02:00N 59°47' E 019°24'918.0
2019-May-14 01:30N 59°48' E 019°41'2718.1
2019-May-14 00:00N 59°24' E 020°06'1918.4 350 / 171025.0 6.0
2019-May-13 22:57N 59°09' E 019°44'9719.6
2019-May-13 18:00N 57°48' E 018°00'9821.0 080 / 151027.0 6.3 6.5
2019-May-13 13:20N 56°15' E 017°05'619.2
2019-May-13 13:00N 56°09' E 017°00'1019.7
2019-May-13 12:30N 56°03' E 016°47'1019.9
2019-May-13 12:00N 55°57' E 016°32'1019.9
2019-May-13 11:30N 55°52' E 016°18'1020.3
2019-May-13 11:00N 55°46' E 016°02'1020.3
2019-May-13 10:30N 55°41' E 015°46'1020.2
2019-May-13 10:00N 55°37' E 015°30'1020.4
2019-May-13 09:30N 55°32' E 015°14'1020.3
2019-May-13 09:00N 55°28' E 014°58'1020.2
2019-May-13 08:30N 55°23' E 014°42'1020.0
2019-May-13 08:00N 55°16' E 014°30'1020.4
2019-May-13 07:30N 55°08' E 014°19'1019.6
2019-May-13 07:00N 55°01' E 014°07'1720.6
2019-May-13 06:10N 54°56' E 013°38'529.0
2019-May-13 06:00N 54°54' E 013°30'1718.3 330 / 151026.0 9.0
2019-May-13 05:03N 54°49' E 013°02'120.1
2019-May-13 05:00N 54°48' E 013°00'1019.8
2019-May-13 04:30N 54°45' E 012°44'1219.2
2019-May-13 03:52N 54°39' E 012°25'719.3
2019-May-13 03:29N 54°34' E 012°17'919.6
2019-May-13 03:01N 54°25' E 012°10'1019.1
2019-May-13 02:28N 54°25' E 011°52'919.1
2019-May-13 02:00N 54°28' E 011°38'1019.6
2019-May-13 01:30N 54°31' E 011°22'1019.8
2019-May-13 01:00N 54°36' E 011°07'1019.3
2019-May-13 00:31N 54°41' E 010°52'1019.5
2019-May-13 00:00N 54°50' E 010°52'3203.8
2019-May-13 00:00N 54°48' E 010°48'1326.4 310 / 271027.0 8.0
2019-May-12 23:30N 54°59' E 010°60'1019.9
2019-May-12 23:00N 55°09' E 011°02'915.5
2019-May-12 22:25N 55°18' E 011°03'6815.4
2019-May-12 18:00N 56°18' E 012°00'1719.5 330 / 101023.0 9.0 10.8
2019-May-12 17:06N 56°09' E 012°27'218.7
2019-May-12 17:00N 56°08' E 012°30'817.0
2019-May-12 16:31N 56°02' E 012°40'815.9
2019-May-12 16:01N 55°55' E 012°45'815.8
2019-May-12 15:31N 55°47' E 012°42'5 9.9
2019-May-12 15:01N 55°43' E 012°37'0 0.2
2019-May-12 14:30N 55°43' E 012°37'0 0.0
2019-May-12 14:00N 55°43' E 012°37'0 0.0
2019-May-12 13:30N 55°43' E 012°37'0 0.0
2019-May-12 13:00N 55°43' E 012°37'0 0.0
2019-May-12 12:30N 55°43' E 012°37'0 0.0
2019-May-12 12:00N 55°43' E 012°37'0 0.0
2019-May-12 11:30N 55°43' E 012°37'0 0.0
2019-May-12 11:00N 55°43' E 012°37'0 0.0
2019-May-12 10:30N 55°43' E 012°37'0 0.0
2019-May-12 10:00N 55°43' E 012°37'0 0.0
2019-May-12 09:30N 55°43' E 012°37'0 0.0
2019-May-12 09:00N 55°43' E 012°37'0 0.0
2019-May-12 08:30N 55°43' E 012°37'0 0.0
2019-May-12 07:57N 55°43' E 012°37'0 0.0
2019-May-12 07:30N 55°43' E 012°37'0 0.0
2019-May-12 07:00N 55°43' E 012°37'0 0.0
2019-May-12 06:30N 55°43' E 012°37'0 0.0
2019-May-12 06:01N 55°43' E 012°37'0 0.0
2019-May-12 05:31N 55°43' E 012°37'0 0.0
2019-May-12 05:01N 55°43' E 012°37'0 0.0
2019-May-12 04:31N 55°43' E 012°37'0 0.0
2019-May-12 04:01N 55°43' E 012°37'2 3.5
2019-May-12 03:30N 55°44' E 012°40'612.3
2019-May-12 03:00N 55°50' E 012°41'714.6
2019-May-12 02:30N 55°57' E 012°40'714.9
2019-May-12 02:00N 56°04' E 012°36'816.6
2019-May-12 01:30N 56°09' E 012°24'2214.8
2019-May-12 00:00N 56°24' E 011°54'3920.4 300 / 271014.0 8.0
2019-May-11 22:05N 57°02' E 011°40'218.4
2019-May-11 21:58N 57°04' E 011°39'919.3
2019-May-11 21:30N 57°12' E 011°32'1020.4
2019-May-11 21:00N 57°22' E 011°26'918.5
2019-May-11 20:30N 57°30' E 011°19'919.0
2019-May-11 20:00N 57°37' E 011°06'1019.0
2019-May-11 19:30N 57°43' E 010°53'1019.0
2019-May-11 19:00N 57°50' E 010°40'1019.5
2019-May-11 18:30N 57°51' E 010°21'918.9
2019-May-11 18:00N 57°50' E 010°04'918.9
2019-May-11 17:30N 57°50' E 009°46'918.5
2019-May-11 17:00N 57°49' E 009°29'918.5
2019-May-11 16:30N 57°43' E 009°15'919.2
2019-May-11 16:00N 57°38' E 008°60'918.9
2019-May-11 15:30N 57°33' E 008°45'918.7
2019-May-11 15:00N 57°28' E 008°30'918.5
2019-May-11 14:30N 57°22' E 008°17'918.4
2019-May-11 14:00N 57°14' E 008°06'918.2
2019-May-11 13:30N 57°06' E 007°59'1018.3
2019-May-11 12:59N 56°58' E 007°51'3418.4
2019-May-11 11:06N 56°27' E 007°21'9919.3
2019-May-11 06:00N 55°00' E 006°00'10617.7 030 / 81010.010.8 8.0-0.7 9.0
2019-May-11 00:00N 53°24' E 004°42'3 9.3 090 / 121009.0 8.0
2019-May-10 23:40N 53°21' E 004°39'318.2
2019-May-10 23:30N 53°19' E 004°37'917.9
2019-May-10 23:00N 53°10' E 004°33'918.3
2019-May-10 22:30N 53°03' E 004°25'917.5
2019-May-10 21:59N 52°55' E 004°17'1218.3
2019-May-10 21:18N 52°44' E 004°08'518.5
2019-May-10 21:01N 52°38' E 004°06'816.4
2019-May-10 20:30N 52°31' E 004°13'816.9
2019-May-10 20:00N 52°29' E 004°26'510.6
2019-May-10 19:31N 52°28' E 004°35'1 2.1
2019-May-10 19:01N 52°28' E 004°36'1 1.0
2019-May-10 18:31N 52°28' E 004°37'0 0.0
2019-May-10 18:01N 52°28' E 004°37'4244.3
2019-May-10 18:00N 52°24' E 004°36'4 8.4 330 / 51008.0 10.9 15.2
2019-May-10 17:31N 52°28' E 004°37'1 2.1
2019-May-10 17:00N 52°28' E 004°39'4 7.8
2019-May-10 16:31N 52°26' E 004°45'4 8.2
2019-May-10 16:01N 52°25' E 004°51'3 5.9
2019-May-10 15:30N 52°23' E 004°54'0 0.8
2019-May-10 15:00N 52°23' E 004°55'0 0.0
2019-May-10 14:29N 52°23' E 004°55'0 0.0
2019-May-10 13:59N 52°23' E 004°55'0 0.0
2019-May-10 13:29N 52°23' E 004°55'0 0.0
2019-May-10 12:59N 52°23' E 004°55'0 0.0
2019-May-10 12:29N 52°23' E 004°55'0 0.0
2019-May-10 11:59N 52°23' E 004°55'0 0.0
2019-May-10 11:29N 52°23' E 004°55'0 0.0
2019-May-10 10:59N 52°23' E 004°55'0 0.0
2019-May-10 10:29N 52°23' E 004°55'0 0.0
2019-May-10 09:59N 52°23' E 004°55'0 0.0
2019-May-10 09:29N 52°23' E 004°55'0 0.0
2019-May-10 08:59N 52°23' E 004°55'0 0.0
2019-May-10 08:29N 52°23' E 004°55'0 0.0
2019-May-10 07:56N 52°23' E 004°55'0 0.0
2019-May-10 07:29N 52°23' E 004°55'0 0.0
2019-May-10 06:59N 52°23' E 004°55'0 0.0
2019-May-10 06:29N 52°23' E 004°55'0 0.0
2019-May-10 05:59N 52°23' E 004°55'0 0.0
2019-May-10 05:29N 52°23' E 004°55'0 0.0
2019-May-10 05:00N 52°23' E 004°55'2 3.1
2019-May-10 04:31N 52°24' E 004°53'3 7.0
2019-May-10 04:01N 52°25' E 004°48'4 7.4
2019-May-10 03:30N 52°26' E 004°42'4 7.2
2019-May-10 03:01N 52°28' E 004°37'2 2.1
2019-May-10 02:01N 52°28' E 004°34'  

Dump ship's entire track history